sensor_id;sensor_type;location;lat;lon;timestamp;P1;P2;P0
76383;PMS7003;65204;48.606;7.598;2023-04-25T00:00:01;2.75;2.75;2.00
76383;PMS7003;65204;48.606;7.598;2023-04-25T00:00:32;3.20;3.20;2.00
76383;PMS7003;65204;48.606;7.598;2023-04-25T00:01:03;3.25;3.25;3.00
76383;PMS7003;65204;48.606;7.598;2023-04-25T00:01:34;2.00;2.00;1.80
76383;PMS7003;65204;48.606;7.598;2023-04-25T00:02:06;3.00;3.00;2.00
76383;PMS7003;65204;48.606;7.598;2023-04-25T00:02:36;3.40;2.40;2.00
76383;PMS7003;65204;48.606;7.598;2023-04-25T00:03:07;3.00;3.00;3.00
76383;PMS7003;65204;48.606;7.598;2023-04-25T00:03:38;5.00;5.00;4.00
76383;PMS7003;65204;48.606;7.598;2023-04-25T00:04:09;3.80;3.80;3.00
76383;PMS7003;65204;48.606;7.598;2023-04-25T00:04:41;5.60;3.80;3.60
76383;PMS7003;65204;48.606;7.598;2023-04-25T00:05:12;3.25;3.25;3.25
76383;PMS7003;65204;48.606;7.598;2023-04-25T00:05:44;3.00;3.00;3.00
76383;PMS7003;65204;48.606;7.598;2023-04-25T00:06:15;3.00;3.00;3.00
76383;PMS7003;65204;48.606;7.598;2023-04-25T00:06:47;4.00;4.00;4.00
76383;PMS7003;65204;48.606;7.598;2023-04-25T00:07:18;5.25;5.25;4.00
76383;PMS7003;65204;48.606;7.598;2023-04-25T00:07:49;3.20;3.20;2.60
76383;PMS7003;65204;48.606;7.598;2023-04-25T00:08:20;3.60;3.60;3.20
76383;PMS7003;65204;48.606;7.598;2023-04-25T00:08:50;4.00;3.00;3.00
76383;PMS7003;65204;48.606;7.598;2023-04-25T00:09:22;2.80;2.20;2.00
76383;PMS7003;65204;48.606;7.598;2023-04-25T00:09:52;4.00;4.00;3.00
76383;PMS7003;65204;48.606;7.598;2023-04-25T00:10:22;3.25;3.00;2.75
76383;PMS7003;65204;48.606;7.598;2023-04-25T00:10:53;5.00;3.50;3.00
76383;PMS7003;65204;48.606;7.598;2023-04-25T00:11:23;3.75;3.75;3.25
76383;PMS7003;65204;48.606;7.598;2023-04-25T00:11:54;3.00;3.00;2.50
76383;PMS7003;65204;48.606;7.598;2023-04-25T00:12:24;3.75;3.75;3.00
76383;PMS7003;65204;48.606;7.598;2023-04-25T00:12:54;3.75;3.75;3.00
76383;PMS7003;65204;48.606;7.598;2023-04-25T00:13:25;4.00;3.00;3.00
76383;PMS7003;65204;48.606;7.598;2023-04-25T00:13:56;3.00;3.00;3.00
76383;PMS7003;65204;48.606;7.598;2023-04-25T00:14:27;3.40;3.40;3.40
76383;PMS7003;65204;48.606;7.598;2023-04-25T00:14:57;4.00;4.00;3.00
76383;PMS7003;65204;48.606;7.598;2023-04-25T00:15:29;3.00;3.00;3.00
76383;PMS7003;65204;48.606;7.598;2023-04-25T00:16:00;4.50;4.00;3.25
76383;PMS7003;65204;48.606;7.598;2023-04-25T00:16:32;2.60;2.60;2.00
76383;PMS7003;65204;48.606;7.598;2023-04-25T00:17:04;4.60;4.60;3.80
76383;PMS7003;65204;48.606;7.598;2023-04-25T00:17:35;4.00;4.00;3.80
76383;PMS7003;65204;48.606;7.598;2023-04-25T00:18:08;3.00;3.00;3.00
76383;PMS7003;65204;48.606;7.598;2023-04-25T00:18:38;4.00;4.00;3.75
76383;PMS7003;65204;48.606;7.598;2023-04-25T00:19:09;3.25;3.00;2.50
76383;PMS7003;65204;48.606;7.598;2023-04-25T00:19:40;3.50;3.50;3.00
76383;PMS7003;65204;48.606;7.598;2023-04-25T00:20:10;3.25;2.75;2.25
76383;PMS7003;65204;48.606;7.598;2023-04-25T00:20:41;5.60;4.40;2.80
76383;PMS7003;65204;48.606;7.598;2023-04-25T00:21:16;5.80;4.80;3.40
76383;PMS7003;65204;48.606;7.598;2023-04-25T00:21:48;3.00;3.00;2.20
76383;PMS7003;65204;48.606;7.598;2023-04-25T00:22:19;5.75;5.00;4.00
76383;PMS7003;65204;48.606;7.598;2023-04-25T00:22:50;4.20;4.20;3.20
76383;PMS7003;65204;48.606;7.598;2023-04-25T00:23:23;4.40;4.00;4.00
76383;PMS7003;65204;48.606;7.598;2023-04-25T00:23:54;7.00;7.00;4.00
76383;PMS7003;65204;48.606;7.598;2023-04-25T00:24:25;6.60;5.20;4.00
76383;PMS7003;65204;48.606;7.598;2023-04-25T00:24:55;4.50;4.50;4.00
76383;PMS7003;65204;48.606;7.598;2023-04-25T00:25:27;3.60;3.60;3.00
76383;PMS7003;65204;48.606;7.598;2023-04-25T00:25:57;6.25;3.50;3.50
76383;PMS7003;65204;48.606;7.598;2023-04-25T00:26:27;5.00;5.00;3.25
76383;PMS7003;65204;48.606;7.598;2023-04-25T00:26:58;6.00;6.00;5.50
76383;PMS7003;65204;48.606;7.598;2023-04-25T00:27:28;4.75;4.00;4.00
76383;PMS7003;65204;48.606;7.598;2023-04-25T00:27:58;5.00;3.00;2.25
76383;PMS7003;65204;48.606;7.598;2023-04-25T00:28:29;4.00;4.00;3.25
76383;PMS7003;65204;48.606;7.598;2023-04-25T00:28:59;4.50;4.25;4.00
76383;PMS7003;65204;48.606;7.598;2023-04-25T00:29:30;7.00;4.00;3.25
76383;PMS7003;65204;48.606;7.598;2023-04-25T00:30:00;6.25;4.00;4.00
76383;PMS7003;65204;48.606;7.598;2023-04-25T00:30:30;4.00;4.00;4.00
76383;PMS7003;65204;48.606;7.598;2023-04-25T00:31:01;3.00;2.00;1.00
76383;PMS7003;65204;48.606;7.598;2023-04-25T00:31:31;4.00;4.00;3.00
76383;PMS7003;65204;48.606;7.598;2023-04-25T00:32:01;5.50;5.50;4.00
76383;PMS7003;65204;48.606;7.598;2023-04-25T00:32:32;4.50;4.50;3.50
76383;PMS7003;65204;48.606;7.598;2023-04-25T00:33:02;3.00;2.00;2.00
76383;PMS7003;65204;48.606;7.598;2023-04-25T00:33:32;6.00;4.25;4.00
76383;PMS7003;65204;48.606;7.598;2023-04-25T00:34:03;7.00;7.00;5.00
76383;PMS7003;65204;48.606;7.598;2023-04-25T00:34:33;4.50;4.00;4.00
76383;PMS7003;65204;48.606;7.598;2023-04-25T00:35:03;4.00;4.00;3.00
76383;PMS7003;65204;48.606;7.598;2023-04-25T00:35:34;4.25;4.00;3.00
76383;PMS7003;65204;48.606;7.598;2023-04-25T00:36:05;6.50;5.75;4.00
76383;PMS7003;65204;48.606;7.598;2023-04-25T00:36:36;6.20;6.20;5.00
76383;PMS7003;65204;48.606;7.598;2023-04-25T00:37:06;6.25;6.25;5.00
76383;PMS7003;65204;48.606;7.598;2023-04-25T00:37:37;4.00;4.00;3.00
76383;PMS7003;65204;48.606;7.598;2023-04-25T00:38:07;7.25;7.00;5.00
76383;PMS7003;65204;48.606;7.598;2023-04-25T00:38:37;6.50;6.50;4.50
76383;PMS7003;65204;48.606;7.598;2023-04-25T00:39:08;5.50;4.25;3.25
76383;PMS7003;65204;48.606;7.598;2023-04-25T00:39:38;4.75;4.75;4.00
76383;PMS7003;65204;48.606;7.598;2023-04-25T00:40:09;4.50;4.50;3.50
76383;PMS7003;65204;48.606;7.598;2023-04-25T00:40:40;8.40;5.80;4.60
76383;PMS7003;65204;48.606;7.598;2023-04-25T00:41:13;5.00;5.00;4.00
76383;PMS7003;65204;48.606;7.598;2023-04-25T00:41:44;6.00;4.75;3.75
76383;PMS7003;65204;48.606;7.598;2023-04-25T00:42:15;4.40;4.40;4.00
76383;PMS7003;65204;48.606;7.598;2023-04-25T00:42:46;4.00;4.00;3.00
76383;PMS7003;65204;48.606;7.598;2023-04-25T00:43:17;7.20;6.40;5.80
76383;PMS7003;65204;48.606;7.598;2023-04-25T00:43:48;6.00;6.00;4.00
76383;PMS7003;65204;48.606;7.598;2023-04-25T00:44:18;5.20;5.20;4.60
76383;PMS7003;65204;48.606;7.598;2023-04-25T00:44:50;5.80;5.80;4.00
76383;PMS7003;65204;48.606;7.598;2023-04-25T00:45:22;8.80;7.80;6.40
76383;PMS7003;65204;48.606;7.598;2023-04-25T00:45:58;6.40;6.00;5.80
76383;PMS7003;65204;48.606;7.598;2023-04-25T00:46:30;7.20;7.20;6.20
76383;PMS7003;65204;48.606;7.598;2023-04-25T00:47:01;4.00;4.00;3.00
76383;PMS7003;65204;48.606;7.598;2023-04-25T00:47:32;5.25;5.00;3.75
76383;PMS7003;65204;48.606;7.598;2023-04-25T00:48:03;7.00;6.20;5.00
76383;PMS7003;65204;48.606;7.598;2023-04-25T00:48:34;4.20;4.20;3.40
76383;PMS7003;65204;48.606;7.598;2023-04-25T00:49:04;4.75;4.75;4.00
76383;PMS7003;65204;48.606;7.598;2023-04-25T00:49:35;7.75;5.75;4.50
76383;PMS7003;65204;48.606;7.598;2023-04-25T00:50:05;8.00;6.25;4.25
76383;PMS7003;65204;48.606;7.598;2023-04-25T00:50:36;7.00;4.60;3.60
76383;PMS7003;65204;48.606;7.598;2023-04-25T00:51:15;7.50;6.75;6.00
76383;PMS7003;65204;48.606;7.598;2023-04-25T00:51:49;6.00;6.00;5.20
76383;PMS7003;65204;48.606;7.598;2023-04-25T00:52:19;5.00;5.00;4.00
76383;PMS7003;65204;48.606;7.598;2023-04-25T00:52:50;7.25;5.75;5.00
76383;PMS7003;65204;48.606;7.598;2023-04-25T00:53:21;6.25;6.25;5.50
76383;PMS7003;65204;48.606;7.598;2023-04-25T00:53:53;6.60;6.60;5.80
76383;PMS7003;65204;48.606;7.598;2023-04-25T00:54:24;4.75;4.75;4.00
76383;PMS7003;65204;48.606;7.598;2023-04-25T00:54:55;5.40;5.40;5.00
76383;PMS7003;65204;48.606;7.598;2023-04-25T00:55:25;5.25;5.25;4.50
76383;PMS7003;65204;48.606;7.598;2023-04-25T00:55:55;5.00;4.25;3.75
76383;PMS7003;65204;48.606;7.598;2023-04-25T00:56:26;7.00;5.25;4.00
76383;PMS7003;65204;48.606;7.598;2023-04-25T00:56:56;4.25;4.00;3.00
76383;PMS7003;65204;48.606;7.598;2023-04-25T00:57:27;4.75;4.75;4.00
76383;PMS7003;65204;48.606;7.598;2023-04-25T00:57:58;7.00;6.20;5.80
76383;PMS7003;65204;48.606;7.598;2023-04-25T00:58:28;6.25;6.25;4.25
76383;PMS7003;65204;48.606;7.598;2023-04-25T00:58:59;9.00;6.50;6.25
76383;PMS7003;65204;48.606;7.598;2023-04-25T00:59:29;7.25;7.25;5.00
76383;PMS7003;65204;48.606;7.598;2023-04-25T01:00:00;6.50;6.50;6.00
76383;PMS7003;65204;48.606;7.598;2023-04-25T01:00:31;6.75;5.25;4.50
76383;PMS7003;65204;48.606;7.598;2023-04-25T01:01:01;7.25;6.50;5.50
76383;PMS7003;65204;48.606;7.598;2023-04-25T01:01:32;5.25;5.25;4.25
76383;PMS7003;65204;48.606;7.598;2023-04-25T01:02:03;8.25;7.25;5.00
76383;PMS7003;65204;48.606;7.598;2023-04-25T01:02:34;5.60;5.60;4.60
76383;PMS7003;65204;48.606;7.598;2023-04-25T01:03:05;5.40;5.40;5.00
76383;PMS7003;65204;48.606;7.598;2023-04-25T01:03:37;7.25;6.25;4.00
76383;PMS7003;65204;48.606;7.598;2023-04-25T01:04:12;9.60;9.60;7.40
76383;PMS7003;65204;48.606;7.598;2023-04-25T01:04:43;6.50;5.25;4.25
76383;PMS7003;65204;48.606;7.598;2023-04-25T01:05:14;7.00;7.00;5.60
76383;PMS7003;65204;48.606;7.598;2023-04-25T01:05:45;7.50;5.00;4.25
76383;PMS7003;65204;48.606;7.598;2023-04-25T01:06:16;7.60;6.20;5.60
76383;PMS7003;65204;48.606;7.598;2023-04-25T01:06:47;6.50;4.50;4.00
76383;PMS7003;65204;48.606;7.598;2023-04-25T01:07:18;8.20;7.80;6.00
76383;PMS7003;65204;48.606;7.598;2023-04-25T01:07:48;7.75;6.75;5.00
76383;PMS7003;65204;48.606;7.598;2023-04-25T01:08:21;4.25;4.25;4.00
76383;PMS7003;65204;48.606;7.598;2023-04-25T01:08:54;7.00;6.80;5.60
76383;PMS7003;65204;48.606;7.598;2023-04-25T01:09:25;10.00;8.25;7.00
76383;PMS7003;65204;48.606;7.598;2023-04-25T01:09:55;7.25;7.00;5.50
76383;PMS7003;65204;48.606;7.598;2023-04-25T01:10:26;8.25;7.00;5.00
76383;PMS7003;65204;48.606;7.598;2023-04-25T01:10:57;7.00;6.25;5.00
76383;PMS7003;65204;48.606;7.598;2023-04-25T01:11:27;6.75;6.75;5.00
76383;PMS7003;65204;48.606;7.598;2023-04-25T01:11:57;8.50;8.50;7.00
76383;PMS7003;65204;48.606;7.598;2023-04-25T01:12:28;6.50;5.25;4.50
76383;PMS7003;65204;48.606;7.598;2023-04-25T01:12:58;8.00;7.50;5.00
76383;PMS7003;65204;48.606;7.598;2023-04-25T01:13:29;7.25;6.00;3.50
76383;PMS7003;65204;48.606;7.598;2023-04-25T01:14:00;7.25;6.25;4.00
76383;PMS7003;65204;48.606;7.598;2023-04-25T01:14:31;7.20;7.20;5.00
76383;PMS7003;65204;48.606;7.598;2023-04-25T01:15:02;7.50;6.50;5.25
76383;PMS7003;65204;48.606;7.598;2023-04-25T01:15:32;11.75;9.25;7.25
76383;PMS7003;65204;48.606;7.598;2023-04-25T01:16:03;5.00;5.00;5.00
76383;PMS7003;65204;48.606;7.598;2023-04-25T01:16:34;9.25;7.25;5.25
76383;PMS7003;65204;48.606;7.598;2023-04-25T01:17:04;9.00;7.75;5.25
76383;PMS7003;65204;48.606;7.598;2023-04-25T01:17:35;5.00;5.00;2.50
76383;PMS7003;65204;48.606;7.598;2023-04-25T01:18:05;8.25;8.25;6.50
76383;PMS7003;65204;48.606;7.598;2023-04-25T01:18:38;7.60;6.80;5.60
76383;PMS7003;65204;48.606;7.598;2023-04-25T01:19:10;5.40;5.40;5.40
76383;PMS7003;65204;48.606;7.598;2023-04-25T01:19:43;8.80;8.20;6.80
76383;PMS7003;65204;48.606;7.598;2023-04-25T01:20:16;7.80;7.20;5.80
76383;PMS7003;65204;48.606;7.598;2023-04-25T01:20:46;8.50;8.50;6.50
76383;PMS7003;65204;48.606;7.598;2023-04-25T01:21:20;8.20;6.60;5.80
76383;PMS7003;65204;48.606;7.598;2023-04-25T01:21:50;8.25;8.25;6.25
76383;PMS7003;65204;48.606;7.598;2023-04-25T01:22:21;8.25;8.00;6.00
76383;PMS7003;65204;48.606;7.598;2023-04-25T01:22:52;7.00;7.00;5.75
76383;PMS7003;65204;48.606;7.598;2023-04-25T01:23:23;7.75;5.50;4.75
76383;PMS7003;65204;48.606;7.598;2023-04-25T01:23:53;8.25;6.25;5.00
76383;PMS7003;65204;48.606;7.598;2023-04-25T01:24:24;7.00;7.00;5.80
76383;PMS7003;65204;48.606;7.598;2023-04-25T01:24:55;8.20;6.40;5.00
76383;PMS7003;65204;48.606;7.598;2023-04-25T01:25:26;11.00;8.00;5.00
76383;PMS7003;65204;48.606;7.598;2023-04-25T01:25:56;10.50;8.75;6.75
76383;PMS7003;65204;48.606;7.598;2023-04-25T01:26:27;6.75;4.25;3.25
76383;PMS7003;65204;48.606;7.598;2023-04-25T01:26:58;6.75;6.50;5.00
76383;PMS7003;65204;48.606;7.598;2023-04-25T01:27:30;6.80;6.80;5.00
76383;PMS7003;65204;48.606;7.598;2023-04-25T01:28:00;9.75;9.00;7.00
76383;PMS7003;65204;48.606;7.598;2023-04-25T01:28:31;8.00;8.00;6.50
76383;PMS7003;65204;48.606;7.598;2023-04-25T01:29:04;8.80;8.80;6.60
76383;PMS7003;65204;48.606;7.598;2023-04-25T01:29:35;8.60;7.60;6.40
76383;PMS7003;65204;48.606;7.598;2023-04-25T01:30:06;6.80;6.80;5.60
76383;PMS7003;65204;48.606;7.598;2023-04-25T01:30:37;10.40;10.40;7.20
76383;PMS7003;65204;48.606;7.598;2023-04-25T01:31:09;7.80;7.80;6.00
76383;PMS7003;65204;48.606;7.598;2023-04-25T01:31:40;4.60;3.40;3.20
76383;PMS7003;65204;48.606;7.598;2023-04-25T01:32:11;9.00;8.75;7.75
76383;PMS7003;65204;48.606;7.598;2023-04-25T01:32:42;8.00;8.00;6.40
76383;PMS7003;65204;48.606;7.598;2023-04-25T01:33:13;8.25;8.25;7.75
76383;PMS7003;65204;48.606;7.598;2023-04-25T01:33:45;6.40;6.40;5.40
76383;PMS7003;65204;48.606;7.598;2023-04-25T01:34:15;5.75;3.75;1.25
76383;PMS7003;65204;48.606;7.598;2023-04-25T01:34:46;10.25;8.00;6.00
76383;PMS7003;65204;48.606;7.598;2023-04-25T01:35:16;8.75;7.00;5.25
76383;PMS7003;65204;48.606;7.598;2023-04-25T01:35:46;9.75;8.00;6.50
76383;PMS7003;65204;48.606;7.598;2023-04-25T01:36:17;7.00;7.00;4.75
76383;PMS7003;65204;48.606;7.598;2023-04-25T01:36:48;8.00;7.50;6.50
76383;PMS7003;65204;48.606;7.598;2023-04-25T01:37:20;7.80;7.80;6.60
76383;PMS7003;65204;48.606;7.598;2023-04-25T01:37:50;7.25;6.25;5.00
76383;PMS7003;65204;48.606;7.598;2023-04-25T01:38:21;9.00;9.00;7.20
76383;PMS7003;65204;48.606;7.598;2023-04-25T01:38:52;9.50;7.50;5.50
76383;PMS7003;65204;48.606;7.598;2023-04-25T01:39:22;7.00;7.00;6.00
76383;PMS7003;65204;48.606;7.598;2023-04-25T01:39:53;7.40;7.00;6.00
76383;PMS7003;65204;48.606;7.598;2023-04-25T01:40:24;7.25;7.25;5.25
76383;PMS7003;65204;48.606;7.598;2023-04-25T01:40:54;9.00;7.50;6.50
76383;PMS7003;65204;48.606;7.598;2023-04-25T01:41:25;6.75;6.75;5.50
76383;PMS7003;65204;48.606;7.598;2023-04-25T01:41:58;6.40;5.80;5.80
76383;PMS7003;65204;48.606;7.598;2023-04-25T01:42:29;6.80;6.80;5.20
76383;PMS7003;65204;48.606;7.598;2023-04-25T01:42:59;7.75;7.75;6.50
76383;PMS7003;65204;48.606;7.598;2023-04-25T01:43:30;9.75;9.75;8.00
76383;PMS7003;65204;48.606;7.598;2023-04-25T01:44:01;7.25;6.75;6.00
76383;PMS7003;65204;48.606;7.598;2023-04-25T01:44:32;6.60;6.60;5.00
76383;PMS7003;65204;48.606;7.598;2023-04-25T01:45:02;9.50;8.50;7.00
76383;PMS7003;65204;48.606;7.598;2023-04-25T01:45:33;7.60;7.60;6.60
76383;PMS7003;65204;48.606;7.598;2023-04-25T01:46:06;9.20;9.20;6.40
76383;PMS7003;65204;48.606;7.598;2023-04-25T01:46:36;8.25;7.75;7.00
76383;PMS7003;65204;48.606;7.598;2023-04-25T01:47:07;8.50;8.50;7.00
76383;PMS7003;65204;48.606;7.598;2023-04-25T01:47:38;12.00;9.00;7.25
76383;PMS7003;65204;48.606;7.598;2023-04-25T01:48:10;8.80;8.80;6.60
76383;PMS7003;65204;48.606;7.598;2023-04-25T01:48:43;8.40;8.40;7.40
76383;PMS7003;65204;48.606;7.598;2023-04-25T01:49:13;6.50;6.50;5.00
76383;PMS7003;65204;48.606;7.598;2023-04-25T01:49:44;6.50;6.50;5.75
76383;PMS7003;65204;48.606;7.598;2023-04-25T01:50:14;8.75;8.75;6.00
76383;PMS7003;65204;48.606;7.598;2023-04-25T01:50:46;7.60;6.40;6.00
76383;PMS7003;65204;48.606;7.598;2023-04-25T01:51:16;7.75;7.25;6.50
76383;PMS7003;65204;48.606;7.598;2023-04-25T01:51:47;8.75;8.75;6.50
76383;PMS7003;65204;48.606;7.598;2023-04-25T01:52:18;8.00;6.75;5.50
76383;PMS7003;65204;48.606;7.598;2023-04-25T01:52:48;8.75;8.50;7.50
76383;PMS7003;65204;48.606;7.598;2023-04-25T01:53:19;10.25;9.75;8.50
76383;PMS7003;65204;48.606;7.598;2023-04-25T01:53:49;7.50;6.50;4.50
76383;PMS7003;65204;48.606;7.598;2023-04-25T01:54:20;8.00;8.00;7.00
76383;PMS7003;65204;48.606;7.598;2023-04-25T01:54:51;10.00;9.00;7.00
76383;PMS7003;65204;48.606;7.598;2023-04-25T01:55:22;8.60;8.60;7.20
76383;PMS7003;65204;48.606;7.598;2023-04-25T01:55:52;8.25;8.00;7.25
76383;PMS7003;65204;48.606;7.598;2023-04-25T01:56:23;7.25;6.75;5.25
76383;PMS7003;65204;48.606;7.598;2023-04-25T01:56:53;7.00;7.00;6.75
76383;PMS7003;65204;48.606;7.598;2023-04-25T01:57:27;8.60;8.00;5.80
76383;PMS7003;65204;48.606;7.598;2023-04-25T01:57:57;8.50;8.25;6.50
76383;PMS7003;65204;48.606;7.598;2023-04-25T01:58:29;11.20;11.20;8.80
76383;PMS7003;65204;48.606;7.598;2023-04-25T01:58:59;4.25;4.25;3.25
76383;PMS7003;65204;48.606;7.598;2023-04-25T01:59:30;7.00;7.00;4.50
76383;PMS7003;65204;48.606;7.598;2023-04-25T02:00:01;10.25;10.25;8.25
76383;PMS7003;65204;48.606;7.598;2023-04-25T02:00:33;8.00;8.00;6.20
76383;PMS7003;65204;48.606;7.598;2023-04-25T02:01:04;9.50;9.25;5.75
76383;PMS7003;65204;48.606;7.598;2023-04-25T02:01:34;8.00;8.00;7.00
76383;PMS7003;65204;48.606;7.598;2023-04-25T02:02:04;7.75;7.75;5.25
76383;PMS7003;65204;48.606;7.598;2023-04-25T02:02:35;7.75;7.75;6.50
76383;PMS7003;65204;48.606;7.598;2023-04-25T02:03:06;10.75;8.25;7.25
76383;PMS7003;65204;48.606;7.598;2023-04-25T02:03:36;9.50;7.25;6.25
76383;PMS7003;65204;48.606;7.598;2023-04-25T02:04:07;7.75;7.75;6.50
76383;PMS7003;65204;48.606;7.598;2023-04-25T02:04:37;8.75;8.75;7.25
76383;PMS7003;65204;48.606;7.598;2023-04-25T02:05:07;11.75;10.00;8.25
76383;PMS7003;65204;48.606;7.598;2023-04-25T02:05:38;9.25;8.25;7.00
76383;PMS7003;65204;48.606;7.598;2023-04-25T02:06:09;8.60;8.60;7.00
76383;PMS7003;65204;48.606;7.598;2023-04-25T02:06:39;10.75;10.75;8.00
76383;PMS7003;65204;48.606;7.598;2023-04-25T02:07:10;9.50;9.50;6.75
76383;PMS7003;65204;48.606;7.598;2023-04-25T02:07:40;11.00;11.00;8.25
76383;PMS7003;65204;48.606;7.598;2023-04-25T02:08:10;8.00;7.25;5.50
76383;PMS7003;65204;48.606;7.598;2023-04-25T02:08:41;7.25;7.25;5.50
76383;PMS7003;65204;48.606;7.598;2023-04-25T02:09:11;8.75;8.75;6.75
76383;PMS7003;65204;48.606;7.598;2023-04-25T02:09:41;8.00;7.50;5.50
76383;PMS7003;65204;48.606;7.598;2023-04-25T02:10:12;9.50;8.00;7.25
76383;PMS7003;65204;48.606;7.598;2023-04-25T02:10:42;9.75;9.75;8.25
76383;PMS7003;65204;48.606;7.598;2023-04-25T02:11:12;11.00;9.75;8.00
76383;PMS7003;65204;48.606;7.598;2023-04-25T02:11:43;9.50;9.50;8.00
76383;PMS7003;65204;48.606;7.598;2023-04-25T02:12:14;10.25;10.25;8.50
76383;PMS7003;65204;48.606;7.598;2023-04-25T02:12:44;5.75;5.50;4.25
76383;PMS7003;65204;48.606;7.598;2023-04-25T02:13:15;10.75;9.00;7.00
76383;PMS7003;65204;48.606;7.598;2023-04-25T02:13:45;8.50;8.50;6.50
76383;PMS7003;65204;48.606;7.598;2023-04-25T02:14:15;11.00;10.25;7.50
76383;PMS7003;65204;48.606;7.598;2023-04-25T02:14:46;8.00;6.75;5.25
76383;PMS7003;65204;48.606;7.598;2023-04-25T02:15:16;11.75;11.75;9.50
76383;PMS7003;65204;48.606;7.598;2023-04-25T02:15:46;7.25;7.25;7.25
76383;PMS7003;65204;48.606;7.598;2023-04-25T02:16:17;11.00;11.00;9.00
76383;PMS7003;65204;48.606;7.598;2023-04-25T02:16:47;12.00;10.25;8.50
76383;PMS7003;65204;48.606;7.598;2023-04-25T02:17:18;7.50;7.50;5.50
76383;PMS7003;65204;48.606;7.598;2023-04-25T02:17:48;10.25;7.75;7.00
76383;PMS7003;65204;48.606;7.598;2023-04-25T02:18:18;13.75;11.25;8.00
76383;PMS7003;65204;48.606;7.598;2023-04-25T02:18:49;14.00;11.50;8.25
76383;PMS7003;65204;48.606;7.598;2023-04-25T02:19:22;9.40;9.40;7.20
76383;PMS7003;65204;48.606;7.598;2023-04-25T02:19:52;13.00;11.25;9.50
76383;PMS7003;65204;48.606;7.598;2023-04-25T02:20:23;10.00;10.00;7.00
76383;PMS7003;65204;48.606;7.598;2023-04-25T02:20:54;10.20;9.20;7.00
76383;PMS7003;65204;48.606;7.598;2023-04-25T02:21:25;11.25;9.75;7.50
76383;PMS7003;65204;48.606;7.598;2023-04-25T02:21:56;8.80;8.80;6.40
76383;PMS7003;65204;48.606;7.598;2023-04-25T02:22:27;8.25;7.75;6.50
76383;PMS7003;65204;48.606;7.598;2023-04-25T02:23:00;11.20;10.20;7.80
76383;PMS7003;65204;48.606;7.598;2023-04-25T02:23:30;7.75;7.75;6.25
76383;PMS7003;65204;48.606;7.598;2023-04-25T02:24:00;11.75;8.00;6.50
76383;PMS7003;65204;48.606;7.598;2023-04-25T02:24:31;7.25;7.25;6.25
76383;PMS7003;65204;48.606;7.598;2023-04-25T02:25:03;8.80;8.80;7.40
76383;PMS7003;65204;48.606;7.598;2023-04-25T02:25:34;6.60;6.60;5.00
76383;PMS7003;65204;48.606;7.598;2023-04-25T02:26:04;12.00;12.00;9.75
76383;PMS7003;65204;48.606;7.598;2023-04-25T02:26:35;12.75;10.00;9.00
76383;PMS7003;65204;48.606;7.598;2023-04-25T02:27:06;8.40;7.80;6.40
76383;PMS7003;65204;48.606;7.598;2023-04-25T02:27:37;9.20;8.80;6.20
76383;PMS7003;65204;48.606;7.598;2023-04-25T02:28:08;8.00;7.00;5.75
76383;PMS7003;65204;48.606;7.598;2023-04-25T02:28:38;8.25;8.25;7.25
76383;PMS7003;65204;48.606;7.598;2023-04-25T02:29:09;9.75;8.75;6.50
76383;PMS7003;65204;48.606;7.598;2023-04-25T02:29:40;11.25;10.50;8.50
76383;PMS7003;65204;48.606;7.598;2023-04-25T02:30:10;7.75;7.25;5.25
76383;PMS7003;65204;48.606;7.598;2023-04-25T02:30:41;9.50;9.50;8.00
76383;PMS7003;65204;48.606;7.598;2023-04-25T02:31:11;7.50;7.50;5.50
76383;PMS7003;65204;48.606;7.598;2023-04-25T02:31:42;10.25;8.75;8.00
76383;PMS7003;65204;48.606;7.598;2023-04-25T02:32:12;8.00;7.75;7.00
76383;PMS7003;65204;48.606;7.598;2023-04-25T02:32:42;13.25;8.25;6.25
76383;PMS7003;65204;48.606;7.598;2023-04-25T02:33:13;10.50;9.00;7.25
76383;PMS7003;65204;48.606;7.598;2023-04-25T02:33:43;10.75;10.75;8.00
76383;PMS7003;65204;48.606;7.598;2023-04-25T02:34:14;11.50;10.75;7.75
76383;PMS7003;65204;48.606;7.598;2023-04-25T02:34:44;9.25;8.00;7.00
76383;PMS7003;65204;48.606;7.598;2023-04-25T02:35:14;11.00;10.25;7.50
76383;PMS7003;65204;48.606;7.598;2023-04-25T02:35:45;9.00;8.00;7.00
76383;PMS7003;65204;48.606;7.598;2023-04-25T02:36:15;11.00;9.00;6.00
76383;PMS7003;65204;48.606;7.598;2023-04-25T02:36:45;12.75;10.75;8.00
76383;PMS7003;65204;48.606;7.598;2023-04-25T02:37:18;9.20;7.00;4.60
76383;PMS7003;65204;48.606;7.598;2023-04-25T02:37:48;9.25;9.25;7.25
76383;PMS7003;65204;48.606;7.598;2023-04-25T02:38:19;7.50;6.50;5.25
76383;PMS7003;65204;48.606;7.598;2023-04-25T02:38:49;10.25;9.25;7.25
76383;PMS7003;65204;48.606;7.598;2023-04-25T02:39:20;7.50;7.00;5.50
76383;PMS7003;65204;48.606;7.598;2023-04-25T02:39:52;10.20;9.00;7.00
76383;PMS7003;65204;48.606;7.598;2023-04-25T02:40:22;9.00;8.00;7.75
76383;PMS7003;65204;48.606;7.598;2023-04-25T02:40:52;9.25;9.25;7.25
76383;PMS7003;65204;48.606;7.598;2023-04-25T02:41:23;11.75;11.75;9.00
76383;PMS7003;65204;48.606;7.598;2023-04-25T02:41:53;13.00;11.00;7.75
76383;PMS7003;65204;48.606;7.598;2023-04-25T02:42:24;9.50;9.50;7.50
76383;PMS7003;65204;48.606;7.598;2023-04-25T02:42:54;10.50;9.50;8.00
76383;PMS7003;65204;48.606;7.598;2023-04-25T02:43:24;10.75;10.00;8.00
76383;PMS7003;65204;48.606;7.598;2023-04-25T02:43:55;7.25;7.25;5.00
76383;PMS7003;65204;48.606;7.598;2023-04-25T02:44:25;9.75;9.75;8.50
76383;PMS7003;65204;48.606;7.598;2023-04-25T02:44:55;6.75;6.50;5.00
76383;PMS7003;65204;48.606;7.598;2023-04-25T02:45:26;10.25;8.75;7.50
76383;PMS7003;65204;48.606;7.598;2023-04-25T02:45:56;11.75;10.00;8.25
76383;PMS7003;65204;48.606;7.598;2023-04-25T02:46:26;7.50;7.50;6.50
76383;PMS7003;65204;48.606;7.598;2023-04-25T02:46:57;10.50;10.50;8.50
76383;PMS7003;65204;48.606;7.598;2023-04-25T02:47:27;12.00;11.00;8.50
76383;PMS7003;65204;48.606;7.598;2023-04-25T02:47:58;9.00;9.00;6.50
76383;PMS7003;65204;48.606;7.598;2023-04-25T02:48:28;11.75;11.75;8.00
76383;PMS7003;65204;48.606;7.598;2023-04-25T02:48:59;14.00;11.25;8.25
76383;PMS7003;65204;48.606;7.598;2023-04-25T02:49:29;9.50;9.50;8.25
76383;PMS7003;65204;48.606;7.598;2023-04-25T02:50:00;10.00;9.75;8.00
76383;PMS7003;65204;48.606;7.598;2023-04-25T02:50:30;11.50;11.50;8.25
76383;PMS7003;65204;48.606;7.598;2023-04-25T02:51:00;7.50;7.50;6.00
76383;PMS7003;65204;48.606;7.598;2023-04-25T02:51:31;8.50;8.00;7.00
76383;PMS7003;65204;48.606;7.598;2023-04-25T02:52:01;11.25;10.00;7.50
76383;PMS7003;65204;48.606;7.598;2023-04-25T02:52:32;10.75;9.75;7.50
76383;PMS7003;65204;48.606;7.598;2023-04-25T02:53:02;8.50;8.50;6.25
76383;PMS7003;65204;48.606;7.598;2023-04-25T02:53:33;10.75;9.50;6.25
76383;PMS7003;65204;48.606;7.598;2023-04-25T02:54:03;7.75;6.75;4.50
76383;PMS7003;65204;48.606;7.598;2023-04-25T02:54:33;9.50;9.25;8.50
76383;PMS7003;65204;48.606;7.598;2023-04-25T02:55:04;9.25;7.75;6.50
76383;PMS7003;65204;48.606;7.598;2023-04-25T02:55:35;6.40;6.40;4.80
76383;PMS7003;65204;48.606;7.598;2023-04-25T02:56:05;10.75;10.50;9.50
76383;PMS7003;65204;48.606;7.598;2023-04-25T02:56:36;10.00;8.50;6.75
76383;PMS7003;65204;48.606;7.598;2023-04-25T02:57:06;8.25;7.50;5.25
76383;PMS7003;65204;48.606;7.598;2023-04-25T02:57:37;9.60;9.60;7.20
76383;PMS7003;65204;48.606;7.598;2023-04-25T02:58:07;9.00;9.00;7.50
76383;PMS7003;65204;48.606;7.598;2023-04-25T02:58:38;10.25;8.25;7.00
76383;PMS7003;65204;48.606;7.598;2023-04-25T02:59:09;8.40;8.40;7.40
76383;PMS7003;65204;48.606;7.598;2023-04-25T02:59:40;10.50;10.50;9.00